Time;durP1;ratioP1;P1;durP2;ratioP2;P2;SDS_P1;SDS_P2;PMS_P1;PMS_P2;Temp;Humidity;BMP_temperature;BMP_pressure;BME280_temperature;BME280_humidity;BME280_pressure;Samples;Min_cycle;Max_cycle;Signal;HPM_P1;HPM_P2
2024/01/13 00:01:50;;;;;;;15.23;5.00;;;;;;;;;;5089968;28;20043;-87
2024/01/13 00:04:16;;;;;;;10.35;5.18;;;;;;;;;;5088615;28;20083;-87
2024/01/13 00:06:42;;;;;;;;;;;;;;;;;;5081502;28;20048;-87
2024/01/13 00:09:08;;;;;;;10.48;4.88;;;;;;;;;;5065409;28;19920;-87
2024/01/13 00:11:34;;;;;;;;;;;;;;;;;;5076159;28;20123;-86
2024/01/13 00:14:00;;;;;;;10.48;4.53;;;;;;;;;;5090235;28;20012;-87
2024/01/13 00:16:26;;;;;;;10.52;4.57;;;;;;;;;;5082191;28;20066;-87
2024/01/13 00:18:52;;;;;;;12.75;4.85;;;;;;;;;;5076346;28;20048;-87
2024/01/13 00:21:18;;;;;;;;;;;;;;;;;;5093452;28;20048;-88
2024/01/13 00:23:44;;;;;;;12.55;4.70;;;;;;;;;;5092952;28;19931;-87
2024/01/13 00:26:10;;;;;;;13.70;5.63;;;;;;;;;;5092449;28;20552;-87
2024/01/13 00:28:37;;;;;;;16.70;5.60;;;;;;;;;;5051232;28;20037;-87
2024/01/13 00:31:06;;;;;;;13.18;5.88;;;;;;;;;;5068528;28;20059;-87
2024/01/13 00:33:32;;;;;;;13.55;5.68;;;;;;;;;;5073121;28;20059;-88
2024/01/13 00:35:58;;;;;;;13.65;5.32;;;;;;;;;;5076404;28;20091;-83
2024/01/13 00:38:24;;;;;;;16.80;6.40;;;;;;;;;;5092653;28;20051;-87
2024/01/13 00:40:50;;;;;;;;;;;;;;;;;;5093435;28;20044;-87
2024/01/13 00:43:16;;;;;;;16.75;5.20;;;;;;;;;;5073977;28;19935;-87
2024/01/13 00:45:42;;;;;;;;;;;;;;;;;;5076084;28;20043;-86
2024/01/13 00:48:08;;;;;;;14.27;5.15;;;;;;;;;;5073703;28;19958;-87
2024/01/13 00:50:35;;;;;;;;;;;;;;;;;;5076436;28;20126;-87
2024/01/13 00:53:01;;;;;;;12.80;4.85;;;;;;;;;;5091737;28;19924;-84
2024/01/13 00:55:27;;;;;;;;;;;;;;;;;;5089189;28;20047;-88
2024/01/13 00:57:53;;;;;;;14.55;4.70;;;;;;;;;;5071237;28;19924;-87
2024/01/13 01:00:19;;;;;;;;;;;;;;;;;;5055218;28;20045;-87
2024/01/13 01:02:45;;;;;;;12.13;4.35;;;;;;;;;;5057402;28;19927;-88
2024/01/13 01:05:11;;;;;;;11.23;4.30;;;;;;;;;;5092207;28;20468;-86
2024/01/13 01:07:37;;;;;;;;;;;;;;;;;;5076260;28;20036;-86
2024/01/13 01:10:03;;;;;;;15.30;5.05;;;;;;;;;;5093150;28;19924;-84
2024/01/13 01:12:29;;;;;;;11.98;4.70;;;;;;;;;;5088790;28;20522;-85
2024/01/13 01:14:55;;;;;;;;;;;;;;;;;;5042242;28;20048;-87
2024/01/13 01:17:22;;;;;;;14.88;5.38;;;;;;;;;;5098995;28;19924;-87
2024/01/13 01:19:48;;;;;;;13.93;5.03;;;;;;;;;;5062728;28;20059;-88
2024/01/13 01:22:14;;;;;;;21.02;5.60;;;;;;;;;;5078182;28;20043;-85
2024/01/13 01:24:40;;;;;;;;;;;;;;;;;;5079453;28;20051;-88
2024/01/13 01:27:06;;;;;;;14.32;5.25;;;;;;;;;;5091085;28;19927;-87
2024/01/13 01:29:32;;;;;;;16.38;5.28;;;;;;;;;;5074149;28;20168;-87
2024/01/13 01:31:58;;;;;;;16.30;5.35;;;;;;;;;;5063250;28;20067;-87
2024/01/13 01:34:24;;;;;;;13.15;5.53;;;;;;;;;;5053417;28;20058;-86
2024/01/13 01:36:50;;;;;;;14.80;5.38;;;;;;;;;;5095960;28;20134;-88
2024/01/13 01:39:16;;;;;;;;;;;;;;;;;;5095347;28;20071;-87
2024/01/13 01:41:42;;;;;;;15.05;5.30;;;;;;;;;;5089968;28;19981;-88
2024/01/13 01:44:08;;;;;;;14.10;5.25;;;;;;;;;;5073922;28;20076;-87
2024/01/13 01:46:35;;;;;;;12.38;4.45;;;;;;;;;;5075689;28;20048;-88
2024/01/13 01:49:01;;;;;;;12.68;5.00;;;;;;;;;;5075533;28;20051;-88
2024/01/13 01:51:27;;;;;;;;;;;;;;;;;;5075167;28;20048;-89
2024/01/13 01:53:54;;;;;;;14.73;5.13;;;;;;;;;;5095208;28;19946;-88
2024/01/13 01:56:28;;;;;;;13.20;4.60;;;;;;;;;;5094783;28;20039;-88
2024/01/13 01:58:55;;;;;;;14.88;4.07;;;;;;;;;;5083841;28;20040;-86
2024/01/13 02:01:22;;;;;;;12.63;4.70;;;;;;;;;;5074978;28;20044;-88
2024/01/13 02:03:49;;;;;;;13.63;4.90;;;;;;;;;;5078157;28;20158;-88
2024/01/13 02:06:15;;;;;;;14.48;4.80;;;;;;;;;;5076285;28;20048;-87
2024/01/13 02:08:42;;;;;;;14.45;4.78;;;;;;;;;;5058439;28;20489;-88
2024/01/13 02:11:12;;;;;;;11.85;4.15;;;;;;;;;;5074795;28;20048;-85
2024/01/13 02:13:38;;;;;;;12.90;4.03;;;;;;;;;;5074202;28;20040;-88
2024/01/13 02:16:06;;;;;;;14.18;4.57;;;;;;;;;;5074585;28;20048;-88
2024/01/13 02:18:32;;;;;;;14.85;4.95;;;;;;;;;;5090966;28;20036;-88
2024/01/13 02:20:58;;;;;;;15.75;5.18;;;;;;;;;;5095197;28;20046;-87
2024/01/13 02:23:24;;;;;;;;;;;;;;;;;;5098516;28;20050;-88
2024/01/13 02:25:50;;;;;;;11.48;4.43;;;;;;;;;;5087353;28;19920;-88
2024/01/13 02:28:17;;;;;;;15.75;5.05;;;;;;;;;;5083968;28;20832;-88
2024/01/13 02:30:43;;;;;;;14.85;5.32;;;;;;;;;;5077795;28;20040;-88
2024/01/13 02:33:09;;;;;;;;;;;;;;;;;;5061789;28;20392;-82
2024/01/13 02:35:35;;;;;;;16.17;5.53;;;;;;;;;;5111651;28;19920;-89
2024/01/13 02:38:01;;;;;;;;;;;;;;;;;;5095025;28;20051;-88
2024/01/13 02:40:27;;;;;;;13.95;5.00;;;;;;;;;;5094376;28;19920;-89
2024/01/13 02:42:53;;;;;;;15.30;5.05;;;;;;;;;;5059648;28;20043;-89
2024/01/13 02:45:19;;;;;;;16.65;5.63;;;;;;;;;;5080308;28;20044;-86
2024/01/13 02:47:46;;;;;;;14.15;5.55;;;;;;;;;;5075141;28;20047;-90
2024/01/13 02:50:13;;;;;;;15.10;5.50;;;;;;;;;;5075601;28;20048;-85
2024/01/13 02:52:40;;;;;;;14.27;5.25;;;;;;;;;;5074569;28;20043;-88
2024/01/13 02:55:09;;;;;;;12.98;4.97;;;;;;;;;;5041458;28;20054;-87
2024/01/13 02:57:35;;;;;;;16.17;5.38;;;;;;;;;;5073176;28;20047;-87
2024/01/13 03:00:04;;;;;;;;;;;;;;;;;;5074469;28;20519;-89
2024/01/13 03:02:30;;;;;;;15.73;5.30;;;;;;;;;;5105823;28;19919;-88
2024/01/13 03:04:56;;;;;;;;;;;;;;;;;;5105483;28;20059;-89
2024/01/13 03:07:22;;;;;;;15.00;5.53;;;;;;;;;;5079907;28;19924;-89
2024/01/13 03:09:48;;;;;;;14.25;5.47;;;;;;;;;;5094840;28;20420;-89
2024/01/13 03:12:14;;;;;;;;;;;;;;;;;;5078384;28;20047;-85
2024/01/13 03:14:40;;;;;;;14.20;5.32;;;;;;;;;;5110420;28;20292;-89
2024/01/13 03:17:06;;;;;;;13.55;5.15;;;;;;;;;;5076681;28;20127;-88
2024/01/13 03:19:32;;;;;;;16.92;5.82;;;;;;;;;;5074109;28;20056;-89
2024/01/13 03:21:58;;;;;;;18.40;6.28;;;;;;;;;;5065425;28;20046;-88
2024/01/13 03:24:24;;;;;;;17.13;5.85;;;;;;;;;;5111149;28;20103;-90
2024/01/13 03:26:50;;;;;;;;;;;;;;;;;;5090852;28;20503;-89
2024/01/13 03:29:16;;;;;;;14.00;5.55;;;;;;;;;;5082948;28;19920;-87
2024/01/13 03:31:42;;;;;;;;;;;;;;;;;;5077951;28;20051;-86
2024/01/13 03:34:08;;;;;;;16.50;5.57;;;;;;;;;;5090923;28;19950;-88
2024/01/13 03:36:34;;;;;;;;;;;;;;;;;;5057159;28;20044;-89
2024/01/13 03:39:00;;;;;;;16.42;5.05;;;;;;;;;;5074137;28;19942;-89
2024/01/13 03:41:26;;;;;;;;;;;;;;;;;;5090979;28;20044;-90
2024/01/13 03:43:52;;;;;;;15.48;5.22;;;;;;;;;;5089925;28;19923;-89
2024/01/13 03:46:18;;;;;;;17.02;5.88;;;;;;;;;;5097884;28;20053;-86
2024/01/13 03:48:45;;;;;;;;;;;;;;;;;;5098688;28;20051;-90
2024/01/13 03:51:12;;;;;;;15.88;5.32;;;;;;;;;;5085966;28;19946;-89
2024/01/13 03:53:38;;;;;;;14.38;5.45;;;;;;;;;;5102881;28;20126;-89
2024/01/13 03:56:04;;;;;;;;;;;;;;;;;;5095182;28;20044;-86
2024/01/13 03:58:30;;;;;;;12.55;5.45;;;;;;;;;;5089119;28;19997;-88
2024/01/13 04:00:57;;;;;;;14.20;5.18;;;;;;;;;;5097579;28;20044;-87
2024/01/13 04:03:23;;;;;;;16.52;5.90;;;;;;;;;;5093369;28;20064;-87
2024/01/13 04:05:50;;;;;;;16.20;5.60;;;;;;;;;;5094876;28;20059;-89
2024/01/13 04:08:16;;;;;;;16.20;5.82;;;;;;;;;;5071476;28;20044;-89
2024/01/13 04:10:42;;;;;;;;;;;;;;;;;;5074320;28;20052;-89
2024/01/13 04:13:11;;;;;;;14.48;5.38;;;;;;;;;;5070621;28;19920;-88
2024/01/13 04:15:37;;;;;;;16.52;5.90;;;;;;;;;;5083875;28;20032;-88
2024/01/13 04:18:03;;;;;;;17.70;5.35;;;;;;;;;;5095211;28;20040;-89
2024/01/13 04:20:29;;;;;;;;;;;;;;;;;;5077634;28;20048;-87
2024/01/13 04:22:55;;;;;;;15.70;5.20;;;;;;;;;;5094385;28;19927;-90
2024/01/13 04:25:21;;;;;;;;;;;;;;;;;;5061544;28;20139;-89
2024/01/13 04:27:48;;;;;;;16.35;5.40;;;;;;;;;;5090227;28;19928;-89
2024/01/13 04:30:14;;;;;;;17.65;5.78;;;;;;;;;;5058564;28;20055;-89
2024/01/13 04:32:41;;;;;;;;;;;;;;;;;;5066998;28;20076;-88
2024/01/13 04:35:07;;;;;;;17.30;5.13;;;;;;;;;;5073968;28;20030;-89
2024/01/13 04:37:33;;;;;;;14.73;5.47;;;;;;;;;;5056880;28;20048;-90
2024/01/13 04:39:59;;;;;;;14.57;5.40;;;;;;;;;;5057349;28;20048;-89
2024/01/13 04:42:25;;;;;;;;;;;;;;;;;;5064837;28;20043;-85
2024/01/13 04:44:51;;;;;;;15.70;5.70;;;;;;;;;;5092061;28;19924;-88
2024/01/13 04:47:17;;;;;;;14.00;5.10;;;;;;;;;;5077103;28;20196;-89
2024/01/13 04:49:43;;;;;;;;;;;;;;;;;;5083359;28;20100;-89
2024/01/13 04:52:09;;;;;;;17.40;5.22;;;;;;;;;;5066695;28;19920;-89
2024/01/13 04:54:35;;;;;;;;;;;;;;;;;;5056299;28;20084;-89
2024/01/13 04:57:01;;;;;;;18.98;5.10;;;;;;;;;;5077111;28;20032;-87
2024/01/13 04:59:27;;;;;;;15.60;4.75;;;;;;;;;;5073953;28;20054;-85
2024/01/13 05:01:53;;;;;;;;;;;;;;;;;;5071090;28;20505;-89
2024/01/13 05:04:20;;;;;;;14.40;5.00;;;;;;;;;;5084347;28;19928;-89
2024/01/13 05:06:46;;;;;;;14.93;5.55;;;;;;;;;;5076458;28;20048;-87
2024/01/13 05:09:12;;;;;;;15.15;5.68;;;;;;;;;;5083480;28;20102;-89
2024/01/13 05:11:39;;;;;;;15.48;5.05;;;;;;;;;;5040326;28;20044;-89
2024/01/13 05:14:05;;;;;;;15.57;5.13;;;;;;;;;;5055477;28;20040;-88
2024/01/13 05:16:31;;;;;;;14.02;5.00;;;;;;;;;;5077226;28;20052;-85
2024/01/13 05:18:57;;;;;;;;;;;;;;;;;;5076887;28;20044;-89
2024/01/13 05:21:23;;;;;;;16.67;5.13;;;;;;;;;;5076221;28;19919;-88
2024/01/13 05:23:49;;;;;;;17.23;4.88;;;;;;;;;;5075671;28;20048;-89
2024/01/13 05:26:15;;;;;;;16.00;4.82;;;;;;;;;;5060004;28;20051;-88
2024/01/13 05:28:41;;;;;;;;;;;;;;;;;;5071789;28;20141;-89
2024/01/13 05:31:07;;;;;;;13.10;4.88;;;;;;;;;;5072313;28;20007;-88
2024/01/13 05:33:33;;;;;;;11.52;4.43;;;;;;;;;;5039632;28;20520;-88
2024/01/13 05:35:59;;;;;;;;;;;;;;;;;;5092088;28;20044;-88
2024/01/13 05:38:26;;;;;;;11.60;3.95;;;;;;;;;;5092763;28;20265;-86
2024/01/13 05:40:52;;;;;;;13.73;4.50;;;;;;;;;;5092262;28;20085;-89
2024/01/13 05:43:18;;;;;;;10.35;4.70;;;;;;;;;;5057527;28;20049;-89
2024/01/13 05:45:44;;;;;;;16.20;4.60;;;;;;;;;;5091605;28;20095;-86
2024/01/13 05:48:10;;;;;;;;;;;;;;;;;;5073295;28;20051;-90
2024/01/13 05:50:36;;;;;;;15.73;4.50;;;;;;;;;;5072246;28;19920;-89
2024/01/13 05:53:03;;;;;;;12.98;4.40;;;;;;;;;;5072840;28;20135;-89
2024/01/13 05:55:29;;;;;;;;;;;;;;;;;;5057805;28;20052;-90
2024/01/13 05:57:55;;;;;;;11.85;4.25;;;;;;;;;;5056825;28;19920;-90
2024/01/13 06:00:21;;;;;;;10.48;4.13;;;;;;;;;;5058470;28;20413;-89
2024/01/13 06:02:47;;;;;;;;;;;;;;;;;;5085093;28;20623;-89
2024/01/13 06:05:13;;;;;;;14.70;4.03;;;;;;;;;;5075565;28;19964;-89
2024/01/13 06:07:40;;;;;;;13.93;4.13;;;;;;;;;;5074255;28;20048;-88
2024/01/13 06:10:07;;;;;;;15.85;3.90;;;;;;;;;;5075652;28;20051;-89
2024/01/13 06:12:33;;;;;;;10.85;3.65;;;;;;;;;;5059671;28;20044;-87
2024/01/13 06:14:59;;;;;;;13.13;3.72;;;;;;;;;;5078025;28;20051;-88
2024/01/13 06:17:25;;;;;;;13.68;4.00;;;;;;;;;;5077630;28;20540;-88
2024/01/13 06:19:51;;;;;;;;;;;;;;;;;;5078887;28;20048;-89
2024/01/13 06:22:17;;;;;;;12.13;3.42;;;;;;;;;;5110196;28;19919;-88
2024/01/13 06:24:43;;;;;;;16.45;4.47;;;;;;;;;;5111705;28;20046;-90
2024/01/13 06:27:09;;;;;;;;;;;;;;;;;;5094313;28;20086;-89
2024/01/13 06:29:35;;;;;;;11.75;4.18;;;;;;;;;;5073815;28;19971;-90
2024/01/13 06:32:01;;;;;;;16.00;4.40;;;;;;;;;;5075079;28;20052;-88
2024/01/13 06:34:27;;;;;;;12.57;4.75;;;;;;;;;;5058774;28;20044;-89
2024/01/13 06:36:53;;;;;;;12.60;4.35;;;;;;;;;;5076037;28;20054;-89
2024/01/13 06:39:19;;;;;;;12.30;4.53;;;;;;;;;;5078157;28;20534;-87
2024/01/13 06:41:45;;;;;;;;;;;;;;;;;;5110597;27;20039;-89
2024/01/13 06:44:11;;;;;;;14.63;4.68;;;;;;;;;;5073784;28;20403;-86
2024/01/13 06:46:38;;;;;;;16.23;5.05;;;;;;;;;;5075022;28;20477;-86
2024/01/13 06:49:04;;;;;;;16.23;4.88;;;;;;;;;;5108513;28;20040;-89
2024/01/13 06:51:30;;;;;;;;;;;;;;;;;;5078605;28;20488;-89
2024/01/13 06:53:56;;;;;;;15.93;5.32;;;;;;;;;;5111484;28;19920;-90
2024/01/13 06:56:22;;;;;;;18.45;5.43;;;;;;;;;;5111369;28;20530;-89
2024/01/13 06:58:48;;;;;;;;;;;;;;;;;;5060811;28;20085;-89
2024/01/13 07:01:14;;;;;;;23.67;5.55;;;;;;;;;;5084673;28;20011;-88
2024/01/13 07:03:41;;;;;;;21.83;6.28;;;;;;;;;;5110871;28;20507;-85
2024/01/13 07:06:07;;;;;;;21.15;5.90;;;;;;;;;;5078123;28;20055;-89
2024/01/13 07:08:33;;;;;;;;;;;;;;;;;;5079511;28;20035;-89
2024/01/13 07:10:59;;;;;;;21.58;6.30;;;;;;;;;;5073924;28;19920;-89
2024/01/13 07:13:25;;;;;;;;;;;;;;;;;;5041062;28;20079;-90
2024/01/13 07:15:53;;;;;;;18.20;4.97;;;;;;;;;;5073827;28;19935;-90
2024/01/13 07:18:20;;;;;;;22.88;6.53;;;;;;;;;;5043386;28;20040;-90
2024/01/13 07:20:46;;;;;;;20.67;6.32;;;;;;;;;;5061207;28;20055;-88
2024/01/13 07:23:12;;;;;;;;;;;;;;;;;;5050708;28;20096;-89
2024/01/13 07:25:38;;;;;;;20.73;6.88;;;;;;;;;;5097542;28;19974;-89
2024/01/13 07:28:04;;;;;;;16.75;6.43;;;;;;;;;;5114800;27;20050;-89
2024/01/13 07:30:30;;;;;;;;;;;;;;;;;;5065149;28;20044;-89
2024/01/13 07:32:56;;;;;;;24.00;5.65;;;;;;;;;;5087693;28;20388;-89
2024/01/13 07:35:22;;;;;;;;;;;;;;;;;;5062521;28;20040;-89
2024/01/13 07:37:48;;;;;;;22.92;6.57;;;;;;;;;;5077464;28;19920;-87
2024/01/13 07:40:17;;;;;;;23.10;6.20;;;;;;;;;;5113151;27;20557;-88
2024/01/13 07:42:43;;;;;;;22.70;6.28;;;;;;;;;;5114244;28;20050;-88
2024/01/13 07:45:09;;;;;;;21.10;6.30;;;;;;;;;;5053003;28;20492;-87
2024/01/13 07:47:35;;;;;;;25.50;6.32;;;;;;;;;;5072370;28;20385;-87
2024/01/13 07:50:03;;;;;;;21.17;6.22;;;;;;;;;;5097836;28;20051;-88
2024/01/13 07:52:29;;;;;;;20.48;5.75;;;;;;;;;;5047594;28;20055;-86
2024/01/13 07:54:55;;;;;;;19.23;6.28;;;;;;;;;;5060532;28;20060;-88
2024/01/13 07:57:22;;;;;;;19.67;5.97;;;;;;;;;;5088602;28;20090;-88
2024/01/13 07:59:48;;;;;;;15.73;4.95;;;;;;;;;;5088661;28;20044;-84
2024/01/13 08:02:14;;;;;;;;;;;;;;;;;;5107894;27;20032;-89
2024/01/13 08:04:40;;;;;;;18.27;5.40;;;;;;;;;;5107295;27;20310;-89
2024/01/13 08:07:06;;;;;;;16.65;5.65;;;;;;;;;;5107629;27;20073;-88
2024/01/13 08:09:33;;;;;;;14.93;5.15;;;;;;;;;;5087767;27;20046;-88
2024/01/13 08:11:59;;;;;;;20.15;5.68;;;;;;;;;;5086269;27;20388;-90
2024/01/13 08:14:25;;;;;;;19.02;5.47;;;;;;;;;;5067724;27;20056;-89
2024/01/13 08:16:51;;;;;;;13.40;5.20;;;;;;;;;;5092308;27;20070;-85
2024/01/13 08:19:17;;;;;;;23.45;5.47;;;;;;;;;;5091743;27;20100;-87
2024/01/13 08:21:43;;;;;;;19.52;5.47;;;;;;;;;;5091724;27;20035;-88
2024/01/13 08:24:09;;;;;;;;;;;;;;;;;;5117815;27;20043;-91
2024/01/13 08:26:36;;;;;;;15.15;5.18;;;;;;;;;;5100832;27;19923;-89
2024/01/13 08:29:02;;;;;;;17.15;5.47;;;;;;;;;;5116472;27;20053;-88
2024/01/13 08:31:28;;;;;;;15.05;5.43;;;;;;;;;;5099497;27;20047;-90
2024/01/13 08:33:54;;;;;;;;;;;;;;;;;;5079578;27;20052;-85
2024/01/13 08:36:21;;;;;;;11.98;3.78;;;;;;;;;;5121745;27;19927;-90
2024/01/13 08:38:47;;;;;;;14.23;5.15;;;;;;;;;;5093417;28;20131;-90
2024/01/13 08:41:13;;;;;;;16.42;5.00;;;;;;;;;;5082141;28;20039;-88
2024/01/13 08:43:40;;;;;;;;;;;;;;;;;;5052431;28;20046;-91
2024/01/13 08:46:07;;;;;;;15.43;5.47;;;;;;;;;;5113974;28;19919;-89
2024/01/13 08:48:33;;;;;;;14.05;4.88;;;;;;;;;;5110762;28;20043;-89
2024/01/13 08:51:00;;;;;;;15.50;4.60;;;;;;;;;;5085867;28;20048;-89
2024/01/13 08:53:27;;;;;;;18.60;5.60;;;;;;;;;;5093482;28;20424;-88
2024/01/13 08:55:53;;;;;;;18.55;5.20;;;;;;;;;;5062670;28;20047;-89
2024/01/13 08:58:19;;;;;;;17.70;4.97;;;;;;;;;;5078883;28;20044;-89
2024/01/13 09:00:45;;;;;;;;;;;;;;;;;;5063551;28;20047;-90
2024/01/13 09:03:11;;;;;;;14.30;4.97;;;;;;;;;;5088669;28;19920;-90
2024/01/13 09:05:37;;;;;;;;;;;;;;;;;;5064274;28;20072;-89
2024/01/13 09:08:03;;;;;;;21.27;6.95;;;;;;;;;;5099213;28;19981;-89
2024/01/13 09:10:29;;;;;;;25.30;7.95;;;;;;;;;;5080423;28;20134;-89
2024/01/13 09:12:55;;;;;;;24.33;8.02;;;;;;;;;;5095664;28;20085;-89
2024/01/13 09:15:22;;;;;;;28.15;9.52;;;;;;;;;;5096217;28;20114;-90
2024/01/13 09:17:48;;;;;;;29.20;9.82;;;;;;;;;;5092842;28;20073;-89
2024/01/13 09:20:14;;;;;;;;;;;;;;;;;;5086487;28;20090;-91
2024/01/13 09:22:40;;;;;;;39.13;11.82;;;;;;;;;;5093265;28;19920;-88
2024/01/13 09:25:07;;;;;;;37.38;11.60;;;;;;;;;;5079470;28;20105;-90
2024/01/13 09:27:33;;;;;;;37.65;11.63;;;;;;;;;;5075881;28;20052;-88
2024/01/13 09:29:59;;;;;;;;;;;;;;;;;;5091561;28;20051;-89
2024/01/13 09:32:25;;;;;;;38.45;12.80;;;;;;;;;;5106020;27;19919;-90
2024/01/13 09:34:51;;;;;;;;;;;;;;;;;;5088873;27;20051;-86
2024/01/13 09:37:17;;;;;;;42.15;13.38;;;;;;;;;;5106470;27;19926;-86
2024/01/13 09:39:44;;;;;;;39.05;11.98;;;;;;;;;;5105676;28;20044;-87
2024/01/13 09:42:14;;;;;;;54.58;16.05;;;;;;;;;;5072628;28;20400;-86
2024/01/13 09:44:40;;;;;;;53.67;15.05;;;;;;;;;;5080193;28;20047;-83
2024/01/13 09:47:06;;;;;;;;;;;;;;;;;;5078571;28;20492;-85
2024/01/13 09:49:32;;;;;;;59.20;17.70;;;;;;;;;;5095291;28;20019;-86
2024/01/13 09:51:59;;;;;;;51.17;16.40;;;;;;;;;;5084213;28;20040;-85
2024/01/13 09:54:26;;;;;;;49.75;16.77;;;;;;;;;;5083190;28;20050;-82
2024/01/13 09:56:53;;;;;;;65.47;18.45;;;;;;;;;;5088931;28;20492;-87
2024/01/13 09:59:22;;;;;;;67.80;20.45;;;;;;;;;;5092800;28;20261;-86
2024/01/13 10:01:48;;;;;;;59.80;20.08;;;;;;;;;;5058731;28;20073;-87
2024/01/13 10:04:15;;;;;;;65.15;20.02;;;;;;;;;;5067329;28;20048;-86
2024/01/13 10:06:41;;;;;;;64.70;19.77;;;;;;;;;;5057774;28;20094;-88
2024/01/13 10:09:07;;;;;;;55.95;17.80;;;;;;;;;;5058237;28;20054;-86
2024/01/13 10:11:34;;;;;;;62.47;20.52;;;;;;;;;;5064729;28;20039;-87
2024/01/13 10:14:00;;;;;;;54.92;19.30;;;;;;;;;;5068477;28;20459;-87
2024/01/13 10:16:28;;;;;;;61.85;20.17;;;;;;;;;;5082615;28;20048;-87
2024/01/13 10:18:54;;;;;;;57.08;19.70;;;;;;;;;;5074741;28;20059;-87
2024/01/13 10:21:20;;;;;;;51.28;18.65;;;;;;;;;;5076388;28;20400;-88
2024/01/13 10:23:48;;;;;;;63.25;20.75;;;;;;;;;;5064086;28;20054;-86
2024/01/13 10:26:14;;;;;;;53.90;19.98;;;;;;;;;;5077136;28;20534;-88
2024/01/13 10:28:40;;;;;;;;;;;;;;;;;;5094100;28;20419;-87
2024/01/13 10:31:06;;;;;;;67.72;21.60;;;;;;;;;;5084815;28;19920;-86
2024/01/13 10:33:32;;;;;;;;;;;;;;;;;;5085392;28;20039;-88
2024/01/13 10:35:58;;;;;;;57.83;19.20;;;;;;;;;;5111826;28;19926;-88
2024/01/13 10:38:25;;;;;;;;;;;;;;;;;;5063441;28;20051;-86
2024/01/13 10:40:53;;;;;;;64.00;21.92;;;;;;;;;;5104693;28;20071;-88
2024/01/13 10:43:21;;;;;;;59.22;21.08;;;;;;;;;;5056372;28;20059;-87
2024/01/13 10:45:51;;;;;;;61.08;21.02;;;;;;;;;;5089525;28;20047;-87
2024/01/13 10:48:24;;;;;;;60.40;21.17;;;;;;;;;;5077429;28;20050;-87
2024/01/13 10:50:50;;;;;;;55.92;21.25;;;;;;;;;;5079255;28;20044;-87
2024/01/13 10:53:16;;;;;;;;;;;;;;;;;;5073457;28;20042;-86
2024/01/13 10:55:43;;;;;;;50.40;20.40;;;;;;;;;;5074117;28;20011;-88
2024/01/13 10:58:10;;;;;;;56.45;23.08;;;;;;;;;;5051355;28;20040;-88
2024/01/13 11:00:36;;;;;;;61.10;22.77;;;;;;;;;;5048697;28;20217;-87
2024/01/13 11:03:05;;;;;;;59.58;21.50;;;;;;;;;;5072690;28;20355;-86
2024/01/13 11:05:33;;;;;;;61.65;22.40;;;;;;;;;;5081760;28;20105;-87
2024/01/13 11:08:03;;;;;;;57.45;22.55;;;;;;;;;;5100145;28;20516;-86
2024/01/13 11:10:32;;;;;;;53.10;20.30;;;;;;;;;;5120058;27;20509;-86
2024/01/13 11:13:02;;;;;;;56.08;22.40;;;;;;;;;;5091144;28;20052;-86
2024/01/13 11:15:38;;;;;;;54.22;21.27;;;;;;;;;;5089872;28;20146;-87
2024/01/13 11:18:07;;;;;;;57.60;21.17;;;;;;;;;;5073612;28;20087;-87
2024/01/13 11:20:52;;;;;;;50.55;20.35;;;;;;;;;;5087454;28;20096;-87
2024/01/13 11:23:18;;;;;;;59.08;22.33;;;;;;;;;;5092822;28;20044;-83
2024/01/13 11:25:45;;;;;;;59.72;22.50;;;;;;;;;;5066625;28;20485;-87
2024/01/13 11:28:13;;;;;;;59.47;21.27;;;;;;;;;;5086176;28;20083;-87
2024/01/13 11:30:39;;;;;;;53.58;22.20;;;;;;;;;;5102893;28;20484;-87
2024/01/13 11:33:12;;;;;;;56.05;22.45;;;;;;;;;;5090139;28;20435;-87
2024/01/13 11:35:38;;;;;;;56.40;22.23;;;;;;;;;;5094930;28;20044;-88
2024/01/13 11:38:08;;;;;;;57.55;21.80;;;;;;;;;;5074930;28;20051;-86
2024/01/13 11:40:34;;;;;;;54.30;22.73;;;;;;;;;;5110443;28;20039;-87
2024/01/13 11:43:00;;;;;;;61.38;22.65;;;;;;;;;;5083483;28;20048;-86
2024/01/13 11:45:33;;;;;;;61.65;24.75;;;;;;;;;;5089734;28;20047;-85
2024/01/13 11:48:19;;;;;;;59.22;22.98;;;;;;;;;;5107211;28;20040;-87
2024/01/13 11:50:51;;;;;;;60.33;24.92;;;;;;;;;;5104382;28;20079;-86
2024/01/13 11:53:39;;;;;;;67.60;25.88;;;;;;;;;;5089901;28;20066;-87
2024/01/13 11:56:06;;;;;;;67.82;24.15;;;;;;;;;;5080189;28;20107;-87
2024/01/13 11:58:34;;;;;;;63.47;24.38;;;;;;;;;;5126393;27;20484;-86
2024/01/13 12:01:01;;;;;;;73.45;25.13;;;;;;;;;;5109574;28;20055;-87
2024/01/13 12:03:27;;;;;;;;;;;;;;;;;;5109368;28;20087;-86
2024/01/13 12:05:53;;;;;;;64.45;24.55;;;;;;;;;;5105642;28;20331;-86
2024/01/13 12:08:19;;;;;;;;;;;;;;;;;;5104888;28;20080;-87
2024/01/13 12:10:46;;;;;;;75.25;24.83;;;;;;;;;;5093667;28;19966;-87
2024/01/13 12:13:18;;;;;;;66.93;24.25;;;;;;;;;;5075230;28;20048;-87
2024/01/13 12:15:47;;;;;;;68.60;25.23;;;;;;;;;;5104527;28;20054;-85
2024/01/13 12:18:26;;;;;;;67.53;24.65;;;;;;;;;;5076413;28;20113;-87
2024/01/13 12:21:01;;;;;;;62.25;24.77;;;;;;;;;;5103550;28;20040;-87
2024/01/13 12:23:27;;;;;;;66.72;23.88;;;;;;;;;;5106132;28;20097;-85
2024/01/13 12:25:54;;;;;;;63.38;23.13;;;;;;;;;;5091898;28;20048;-86
2024/01/13 12:28:20;;;;;;;60.88;22.13;;;;;;;;;;5112744;28;20039;-86
2024/01/13 12:30:49;;;;;;;63.05;23.45;;;;;;;;;;5087262;28;20048;-87
2024/01/13 12:33:17;;;;;;;60.95;22.92;;;;;;;;;;5081671;28;20172;-87
2024/01/13 12:35:43;;;;;;;65.05;24.60;;;;;;;;;;5111436;28;20047;-87
2024/01/13 12:38:09;;;;;;;;;;;;;;;;;;5079803;28;20048;-87
2024/01/13 12:40:35;;;;;;;67.10;24.65;;;;;;;;;;5092679;28;19942;-86
2024/01/13 12:43:02;;;;;;;61.65;21.75;;;;;;;;;;5094171;28;20085;-87
2024/01/13 12:45:28;;;;;;;71.75;24.80;;;;;;;;;;5075787;28;20048;-84
2024/01/13 12:47:55;;;;;;;65.78;22.80;;;;;;;;;;5107285;28;20142;-87
2024/01/13 12:50:24;;;;;;;68.55;24.13;;;;;;;;;;5088320;28;20044;-86
2024/01/13 12:52:50;;;;;;;68.07;23.88;;;;;;;;;;5090346;28;20202;-86
2024/01/13 12:55:16;;;;;;;;;;;;;;;;;;5096651;28;20083;-86
2024/01/13 12:57:42;;;;;;;55.88;21.80;;;;;;;;;;5110196;28;19949;-86
2024/01/13 13:00:09;;;;;;;;;;;;;;;;;;5104255;28;20054;-84
2024/01/13 13:02:35;;;;;;;58.58;22.33;;;;;;;;;;5097234;28;19969;-86
2024/01/13 13:05:05;;;;;;;59.13;23.00;;;;;;;;;;5075262;28;20064;-86
2024/01/13 13:07:31;;;;;;;62.50;23.13;;;;;;;;;;5109557;27;20044;-84
2024/01/13 13:09:58;;;;;;;69.03;24.10;;;;;;;;;;5092321;28;20044;-86
2024/01/13 13:12:24;;;;;;;63.90;23.35;;;;;;;;;;5094102;28;20391;-84
2024/01/13 13:14:50;;;;;;;57.42;20.85;;;;;;;;;;5111058;28;20043;-83
2024/01/13 13:17:17;;;;;;;71.70;24.08;;;;;;;;;;5096054;28;20126;-84
2024/01/13 13:19:43;;;;;;;67.45;22.75;;;;;;;;;;5081498;28;20048;-88
2024/01/13 13:22:09;;;;;;;70.80;23.77;;;;;;;;;;5074573;28;20040;-86
2024/01/13 13:24:35;;;;;;;70.80;22.80;;;;;;;;;;5082851;28;20088;-82
2024/01/13 13:27:01;;;;;;;74.28;24.45;;;;;;;;;;5078997;28;20086;-85
2024/01/13 13:29:27;;;;;;;75.43;21.80;;;;;;;;;;5074303;28;20366;-86
2024/01/13 13:31:57;;;;;;;69.38;23.92;;;;;;;;;;5069522;28;20105;-85
2024/01/13 13:34:23;;;;;;;85.57;24.90;;;;;;;;;;5095860;28;20035;-84
2024/01/13 13:36:50;;;;;;;83.18;23.25;;;;;;;;;;5111832;28;20048;-85
2024/01/13 13:39:18;;;;;;;69.30;20.98;;;;;;;;;;5090014;28;20078;-84
2024/01/13 13:41:45;;;;;;;80.38;23.95;;;;;;;;;;5094795;28;20076;-86
2024/01/13 13:44:11;;;;;;;;;;;;;;;;;;5093767;28;20056;-84
2024/01/13 13:46:37;;;;;;;78.18;23.20;;;;;;;;;;5108523;28;19924;-82
2024/01/13 13:49:06;;;;;;;76.95;24.42;;;;;;;;;;5077092;28;20531;-86
2024/01/13 13:51:32;;;;;;;82.68;21.92;;;;;;;;;;5090115;28;20430;-86
2024/01/13 13:53:58;;;;;;;;;;;;;;;;;;5111934;28;20484;-86
2024/01/13 13:56:24;;;;;;;74.20;22.00;;;;;;;;;;5094274;28;20006;-86
2024/01/13 13:58:50;;;;;;;63.95;19.00;;;;;;;;;;5091115;28;20500;-84
2024/01/13 14:01:17;;;;;;;83.28;21.60;;;;;;;;;;5111454;28;20122;-87
2024/01/13 14:03:43;;;;;;;69.20;20.33;;;;;;;;;;5109519;28;20091;-87
2024/01/13 14:06:09;;;;;;;83.00;21.55;;;;;;;;;;5068874;28;20048;-83
2024/01/13 14:08:37;;;;;;;;;;;;;;;;;;5092676;28;20048;-87
2024/01/13 14:11:03;;;;;;;58.40;17.15;;;;;;;;;;5091386;28;19985;-87
2024/01/13 14:13:29;;;;;;;72.78;19.92;;;;;;;;;;5090728;28;20047;-86
2024/01/13 14:15:55;;;;;;;84.88;22.45;;;;;;;;;;5103429;28;20036;-87
2024/01/13 14:18:21;;;;;;;76.15;19.55;;;;;;;;;;5094882;28;20043;-87
2024/01/13 14:20:47;;;;;;;74.63;18.88;;;;;;;;;;5069140;28;20137;-87
2024/01/13 14:23:14;;;;;;;76.47;19.33;;;;;;;;;;5110905;28;20396;-85
2024/01/13 14:25:41;;;;;;;60.05;16.80;;;;;;;;;;5090631;28;20144;-83
2024/01/13 14:28:07;;;;;;;58.40;18.70;;;;;;;;;;5092924;28;20167;-87
2024/01/13 14:30:33;;;;;;;;;;;;;;;;;;5110432;28;20032;-87
2024/01/13 14:32:59;;;;;;;59.70;17.15;;;;;;;;;;5110120;28;19969;-85
2024/01/13 14:35:26;;;;;;;;;;;;;;;;;;5108407;28;20473;-84
2024/01/13 14:37:53;;;;;;;63.03;17.92;;;;;;;;;;5110060;28;19998;-86
2024/01/13 14:40:19;;;;;;;54.00;15.52;;;;;;;;;;5109799;28;20043;-86
2024/01/13 14:42:45;;;;;;;49.38;15.07;;;;;;;;;;5109303;28;20047;-86
2024/01/13 14:45:11;;;;;;;46.20;16.00;;;;;;;;;;5066926;28;20048;-86
2024/01/13 14:47:37;;;;;;;43.92;14.10;;;;;;;;;;5110025;28;20122;-86